• Join FlightAware (Why Join?)
  • Login
  • US Flag 
04:46PM EDT


 

Airport Tracker/Info


-or-


 

Live Flight TrackerFlight Track Log ✈ DAL6034 ✈ 16-Apr-2013 ✈ KMHT - KLGA

Flight Track Log - Related Links

Times and Time Zones

All times are in EDT time to prevent confusion due to time zone crossing. See the DAL6034 flight status page for this flight to view local times or setup timezone preferences in your user account.

Time Position Orientation Groundspeed Altitude Reporting Facility
EDT Latitude Longitude Course Direction KTS MPH feet Rate Location/Type
05:26PM 42.9167 -71.4333 231° Southwest 145 167 800  Level KA90
05:26PM 42.9000 -71.4333 180° South 146 168 1,700 1,500 Climbing KA90
05:27PM 42.9167 -71.4833 294° West 209 241 2,900 1,920 Climbing KA90
05:28PM 42.9833 -71.4833 360° North 249 287 5,400 2,100 Climbing KA90
05:29PM 42.7314 -71.6732 228° Southwest  Level Estimated
05:30PM 42.6641 -71.7520 236° Southwest  Level Estimated
05:30PM 43.0642 -71.5989 314° West 226 260 9,400  Level Boston Center
05:31PM 42.5968 -71.8306 231° Southwest  Level Estimated
05:31PM 43.0775 -71.6953 281° West 239 275 11,300  Level Boston Center
05:32PM 43.0842 -71.7806 276° West 244 281 13,300 2,100 Climbing Boston Center
05:33PM 43.0742 -71.8772 262° West 244 281 15,600 1,860 Climbing Boston Center
05:34PM 43.0286 -71.9431 227° Southwest 250 288 17,200 1,200 Climbing Boston Center
05:35PM 42.9706 -72.0258 226° Southwest 276 318 18,000 360 Climbing Boston Center
05:36PM 42.9147 -72.1056 226° Southwest 306 352 18,000  Level Boston Center
05:37PM 42.8461 -72.2022 226° Southwest 325 374 18,000  Level Boston Center
05:38PM 42.7817 -72.2931 226° Southwest 331 381 18,000 -180 Level Boston Center
05:39PM 42.7192 -72.3808 226° Southwest 326 375 17,700 -660 Descending Boston Center
05:40PM 42.6608 -72.4628 226° Southwest 320 368 16,700 -900 Descending Boston Center
05:41PM 42.6089 -72.5361 226° Southwest 300 345 16,000 -360 Descending Boston Center
05:42PM 42.5525 -72.6147 226° Southwest 294 338 16,000  Level Boston Center
05:43PM 42.4981 -72.6878 225° Southwest 299 344 16,000  Level Boston Center
05:44PM 42.4292 -72.7833 226° Southwest 312 359 16,000  Level Boston Center
05:45PM 42.3664 -72.8558 220° Southwest 341 392 16,000 -300 Level Boston Center
05:46PM 42.2825 -72.9481 219° Southwest 351 404 15,500 -780 Descending Boston Center
05:47PM 42.2217 -73.0147 219° Southwest 338 389 14,500 -780 Descending Boston Center
05:48PM 42.1506 -73.0981 221° Southwest 321 369 14,000 -300 Descending Boston Center
05:49PM 42.0939 -73.1619 220° Southwest 304 350 14,000  Level Boston Center
05:50PM 42.0225 -73.2422 220° Southwest 304 350 14,000  Level Boston Center
05:51PM 41.9614 -73.3083 219° Southwest 309 356 14,000  Level Boston Center
05:52PM 41.8878 -73.3911 220° Southwest 340 391 14,000 -420 Level Boston Center
05:53PM 41.7975 -73.4678 212° Southwest 354 407 13,200 -900 Descending Boston Center
05:54PM 41.7242 -73.5219 209° Southwest 349 402 12,200 -1,140 Descending Boston Center
05:55PM 41.6381 -73.5872 210° Southwest 334 384 11,000 -1,080 Descending Boston Center
05:56PM 41.5689 -73.6358 208° Southwest 320 368 10,100 -840 Descending Boston Center
05:58PM 41.4667 -73.7000 205° Southwest 261 300 9,000 -480 Descending New York TRACON
05:59PM 41.4000 -73.7500 209° Southwest 253 291 9,000 -420 Level New York TRACON
06:00PM 41.3333 -73.7833 201° Southwest 273 314 8,200 -540 Descending New York TRACON
06:01PM 41.2667 -73.7333 151° Southeast 293 337 8,000 -420 Descending New York TRACON
06:02PM 41.2000 -73.6667 143° Southeast 276 318 7,400 -840 Descending New York TRACON
06:03PM 41.1333 -73.6167 151° Southeast 261 300 6,400 -1,080 Descending New York TRACON
06:04PM 41.0833 -73.6333 194° South 235 270 5,300 -1,200 Descending New York TRACON
06:05PM 41.0333 -73.6667 207° Southwest 193 222 4,100 -660 Descending New York TRACON
06:06PM 40.9833 -73.7000 207° Southwest 187 215 4,000 -120 Descending New York TRACON
06:07PM 40.9500 -73.7333 217° Southwest 141 162 3,900 -540 Descending New York TRACON
06:08PM 40.9167 -73.7667 217° Southwest 158 182 3,000 -900 Descending New York TRACON
06:09PM 40.8833 -73.8000 217° Southwest 155 178 2,100 -900 Descending New York TRACON